Terminal Aerodrome Forecast
Issued by NWS Albany, NY

Home | Current Version | Previous Version | Text Only | Print | Product List | Glossary On
Versions: 1 2 3 4 5 6 7 8 9 10 11 12 13 14 15 16 17 18 19
000
FTUS41 KALY 300500
TAFPOU
TAF
KPOU 300537Z 3006/3106 17005KT 3SM -SN BR BKN015 OVC025
      TEMPO 3006/3010 1SM -SN BKN010
     FM301000 VRB06KT 1 1/2SM -SN OVC010
     FM301400 32009G19KT 3SM -SHSN BKN015 BKN030
     FM301800 32012G22KT P6SM VCSH BKN025 BKN035
     FM310000 31015G25KT P6SM SCT025 BKN035=

USA.gov is the U.S. government's official web portal to all federal, state and local government web resources and services.